Terminal Aerodrome Forecast
Issued by NWS

Current Version | Previous Version | Text Only | Print | Product List | Glossary On
Versions: 1 2 3 4 5 6 7 8 9 10 11 12 13 14 15 16 17
000
FTUS44 KTSA 191722
TAFBVO
TAF
KBVO 191722Z 1918/2018 17010G19KT P6SM SCT060
     FM200100 17010KT P6SM SKC
     FM201600 19010G17KT P6SM SKC=

USA.gov is the U.S. government's official web portal to all federal, state and local government web resources and services.